Aberdeen, California
Current Conditions -  °F | °C
As of 12:56 PM on Wednesday 26 Nov 2014 (Local Time) from KBIH Reporting Station
Clear Clear  
Wind Chill: 70°   Ceiling: Unl
Heat Index: 70°   Visibility: 10mi
Dew Point: 19°   Wind: 3mph
Humidity: 14%   Direction: 140°SE
Pressure: 30.35"   Gusts: NA
Location:  36.9237°N, 117.897°W
Report Text: KBIH 262056Z AUTO 14003KT 10SM CLR 21/M07 A3035 RMK AO2 SLP258 T02111072 58033
Loading
Personal Weather Stations






























Interactive Weather Map New forecast layout! Learn more

10-Day Weather Forecast

Advertisements
Track Severe Weather on mobile